Terminal Aerodrome Forecast
Issued by NWS Boston, MA

Home | Current Version | Previous Version | Text Only | Print | Product List | Glossary On
Versions: 1 2 3 4 5 6 7 8 9 10 11 12 13 14 15 16 17 18 19 20 21 22 23 24 25 26 27 28 29 30 31 32 33 34 35 36 37 38 39 40 41 42 43 44 45
000
FTUS41 KBOX 271547 AAB
TAFPVD
TAF AMD
KPVD 271547Z 2716/2812 18012G21KT P6SM SCT025
     FM271800 20017G27KT P6SM SCT030 BKN040
     FM272100 21018G25KT P6SM BKN025
     FM280000 21016KT 6SM BR BKN015
     FM280600 21013KT 6SM BR BKN010=

USA.gov is the U.S. government's official web portal to all federal, state and local government web resources and services.